Time;durP1;ratioP1;P1;durP2;ratioP2;P2;SDS_P1;SDS_P2;PMS_P1;PMS_P2;Temp;Humidity;BMP_temperature;BMP_pressure;BME280_temperature;BME280_humidity;BME280_pressure;Samples;Min_cycle;Max_cycle;Signal;HPM_P1;HPM_P2
2023/03/20 00:01:49;;;;;;;5.38;2.70;;;9.30;99.90;;;;;;5039046;28;20025;-73
2023/03/20 00:04:15;;;;;;;6.88;2.50;;;9.30;99.90;;;;;;5037365;28;20025;-73
2023/03/20 00:06:40;;;;;;;3.97;2.65;;;9.30;99.90;;;;;;5039730;28;20021;-73
2023/03/20 00:09:07;;;;;;;5.20;2.88;;;9.40;99.90;;;;;;5039294;28;20449;-74
2023/03/20 00:11:47;;;;;;;3.78;2.70;;;9.40;99.90;;;;;;5038196;28;20028;-73
2023/03/20 00:14:14;;;;;;;3.10;2.63;;;9.40;99.90;;;;;;5039169;28;20089;-73
2023/03/20 00:16:45;;;;;;;4.00;2.50;;;9.30;99.90;;;;;;5039222;28;20057;-73
2023/03/20 00:19:18;;;;;;;3.97;2.70;;;9.30;99.90;;;;;;5037197;28;20025;-73
2023/03/20 00:21:46;;;;;;;2.95;2.63;;;9.30;99.90;;;;;;5038530;28;20021;-73
2023/03/20 00:24:12;;;;;;;6.50;2.67;;;9.30;99.90;;;;;;5039473;28;20044;-73
2023/03/20 00:26:39;;;;;;;3.97;2.80;;;9.30;99.90;;;;;;5037619;28;20025;-73
2023/03/20 00:29:06;;;;;;;4.00;2.60;;;9.30;99.90;;;;;;5040677;28;20023;-74
2023/03/20 00:31:38;;;;;;;5.95;2.50;;;9.30;99.90;;;;;;5047521;28;20032;-74
2023/03/20 00:34:10;;;;;;;4.05;2.55;;;9.30;99.90;;;;;;5046498;28;20025;-74
2023/03/20 00:36:35;;;;;;;4.80;2.90;;;9.20;99.90;;;;;;5053233;28;20099;-74
2023/03/20 00:39:01;;;;;;;6.68;2.78;;;9.10;99.90;;;;;;5041858;28;20025;-74
2023/03/20 00:41:52;;;;;;;5.35;3.25;;;9.10;99.90;;;;;;5037965;28;20021;-74
2023/03/20 00:44:29;;;;;;;4.10;2.53;;;9.10;99.90;;;;;;5023892;28;20072;-74
2023/03/20 00:47:00;;;;;;;4.68;2.60;;;9.00;99.90;;;;;;5048094;28;20029;-74
2023/03/20 00:49:31;;;;;;;6.97;2.60;;;9.00;99.90;;;;;;5053055;28;20459;-73
2023/03/20 00:51:57;;;;;;;3.13;2.65;;;8.90;99.90;;;;;;5050392;28;20072;-74
2023/03/20 00:54:24;;;;;;;3.20;2.85;;;8.80;99.90;;;;;;5031059;28;20071;-74
2023/03/20 00:57:02;;;;;;;4.03;3.08;;;8.80;99.90;;;;;;5050576;28;20504;-73
2023/03/20 00:59:33;;;;;;;6.68;2.80;;;8.70;99.90;;;;;;5053416;28;20500;-74
2023/03/20 01:02:01;;;;;;;3.53;3.00;;;8.70;99.90;;;;;;5051121;28;20021;-74
2023/03/20 01:04:35;;;;;;;5.32;2.95;;;8.70;99.90;;;;;;5046538;28;20028;-74
2023/03/20 01:07:00;;;;;;;5.55;3.65;;;8.70;99.90;;;;;;5030855;28;20389;-73
2023/03/20 01:09:26;;;;;;;5.32;2.92;;;8.60;99.90;;;;;;5043628;28;20032;-74
2023/03/20 01:11:52;;;;;;;3.25;2.95;;;8.50;99.90;;;;;;5039333;28;20033;-73
2023/03/20 01:14:18;;;;;;;7.82;3.00;;;8.50;99.90;;;;;;5043883;28;20021;-73
2023/03/20 01:16:43;;;;;;;4.03;3.00;;;8.40;99.90;;;;;;5040594;28;20025;-73
2023/03/20 01:19:14;;;;;;;9.82;2.83;;;8.40;99.90;;;;;;5041488;28;20025;-73
2023/03/20 01:21:40;;;;;;;3.47;2.60;;;8.40;99.90;;;;;;5040012;28;20121;-73
2023/03/20 01:24:06;;;;;;;4.32;3.30;;;8.30;99.90;;;;;;5042927;28;20075;-73
2023/03/20 01:26:36;;;;;;;4.45;2.88;;;8.30;99.90;;;;;;5038484;28;20022;-73
2023/03/20 01:29:13;;;;;;;5.00;3.00;;;8.30;99.90;;;;;;5042863;28;20069;-73
2023/03/20 01:31:40;;;;;;;3.42;3.13;;;8.30;99.90;;;;;;5039926;28;20108;-73
2023/03/20 01:34:11;;;;;;;6.70;2.92;;;8.20;99.90;;;;;;5042220;28;20025;-73
2023/03/20 01:36:37;;;;;;;;;;;8.10;99.90;;;;;;5039872;28;20021;-73
2023/03/20 01:39:03;;;;;;;3.85;3.00;;;8.10;99.90;;;;;;5040485;28;20004;-73
2023/03/20 01:41:30;;;;;;;3.00;2.80;;;7.90;99.90;;;;;;5039409;28;20022;-73
2023/03/20 01:43:56;;;;;;;4.25;3.00;;;7.80;99.90;;;;;;5041342;28;20021;-73
2023/03/20 01:46:27;;;;;;;4.75;3.03;;;7.80;99.90;;;;;;5038930;28;20029;-73
2023/03/20 01:48:53;;;;;;;;;;;7.70;99.90;;;;;;5026476;28;20378;-73
2023/03/20 01:51:24;;;;;;;3.38;3.08;;;7.60;99.90;;;;;;5039117;28;19917;-73
2023/03/20 01:54:04;;;;;;;4.82;3.00;;;7.60;99.90;;;;;;5039448;28;20401;-73
2023/03/20 01:56:33;;;;;;;3.95;3.33;;;7.50;99.90;;;;;;5045755;28;20572;-73
2023/03/20 01:59:04;;;;;;;4.68;3.38;;;7.40;99.90;;;;;;5043341;28;20500;-73
2023/03/20 02:01:30;;;;;;;5.07;3.45;;;7.30;99.90;;;;;;5045812;28;20075;-73
2023/03/20 02:03:56;;;;;;;4.78;3.08;;;7.30;99.90;;;;;;5043472;28;20053;-73
2023/03/20 02:06:24;;;;;;;6.28;3.50;;;7.20;99.90;;;;;;5045268;28;20083;-73
2023/03/20 02:08:51;;;;;;;5.38;3.67;;;7.10;99.90;;;;;;5049983;28;20021;-73
2023/03/20 02:11:22;;;;;;;7.55;3.50;;;7.10;99.90;;;;;;5051206;28;20029;-73
2023/03/20 02:13:51;;;;;;;3.25;2.72;;;7.10;99.90;;;;;;5056140;28;20036;-73
2023/03/20 02:16:18;;;;;;;6.32;3.30;;;7.00;99.90;;;;;;5043848;28;20494;-73
2023/03/20 02:18:46;;;;;;;5.38;3.60;;;7.00;99.90;;;;;;5041906;28;20381;-73
2023/03/20 02:22:04;;;;;;;6.00;3.17;;;6.90;99.90;;;;;;5044131;28;20457;-73
2023/03/20 02:25:14;;;;;;;3.78;3.20;;;7.00;99.90;;;;;;5054435;28;20507;-73
2023/03/20 02:28:02;;;;;;;5.07;3.67;;;7.00;99.90;;;;;;5057080;28;20022;-73
2023/03/20 02:30:48;;;;;;;4.03;3.45;;;7.00;99.90;;;;;;5057330;28;20057;-73
2023/03/20 02:33:20;;;;;;;7.50;3.70;;;7.00;99.90;;;;;;5058655;28;20043;-73
2023/03/20 02:36:04;;;;;;;4.95;3.35;;;7.00;99.90;;;;;;5056058;28;20533;-73
2023/03/20 02:38:35;;;;;;;5.82;3.50;;;7.00;99.90;;;;;;5058727;28;20032;-73
2023/03/20 02:41:07;;;;;;;3.75;3.38;;;7.00;99.90;;;;;;5051678;28;20021;-73
2023/03/20 02:43:35;;;;;;;3.97;3.58;;;7.10;99.90;;;;;;5047461;28;20021;-73
2023/03/20 02:46:10;;;;;;;4.93;3.70;;;7.10;99.90;;;;;;5042768;28;20026;-73
2023/03/20 02:48:50;;;;;;;9.32;3.80;;;7.10;99.90;;;;;;5042421;28;20025;-73
2023/03/20 02:51:23;;;;;;;7.22;3.22;;;7.10;99.90;;;;;;5046046;28;20109;-73
2023/03/20 02:54:23;;;;;;;3.88;3.47;;;7.10;99.90;;;;;;5045279;28;20053;-73
2023/03/20 02:57:17;;;;;;;4.82;3.28;;;7.10;99.90;;;;;;5032067;28;20043;-73
2023/03/20 02:59:50;;;;;;;4.22;3.58;;;7.20;99.90;;;;;;5048429;28;20017;-73
2023/03/20 03:02:38;;;;;;;8.52;3.45;;;7.20;99.90;;;;;;5044186;28;20053;-73
2023/03/20 03:05:15;;;;;;;4.15;3.70;;;7.30;99.90;;;;;;5032176;28;20028;-73
2023/03/20 03:07:45;;;;;;;4.55;3.45;;;7.30;99.90;;;;;;5045796;28;20469;-73
2023/03/20 03:10:15;;;;;;;;;;;7.40;99.90;;;;;;5044344;28;20030;-73
2023/03/20 03:12:45;;;;;;;4.90;3.10;;;7.50;99.90;;;;;;5049057;28;20360;-73
2023/03/20 03:15:39;;;;;;;5.63;2.85;;;7.50;99.90;;;;;;5044538;28;20067;-73
2023/03/20 03:18:10;;;;;;;6.07;3.72;;;7.40;99.90;;;;;;5030085;28;20033;-73
2023/03/20 03:20:38;;;;;;;6.45;3.85;;;7.30;99.90;;;;;;5051257;28;20024;-73
2023/03/20 03:23:04;;;;;;;13.50;4.55;;;7.30;99.90;;;;;;5047858;28;20034;-73
2023/03/20 03:25:38;;;;;;;5.80;3.35;;;7.30;99.90;;;;;;5048536;28;20039;-73
2023/03/20 03:28:20;;;;;;;4.82;3.20;;;7.30;99.90;;;;;;5045893;28;20029;-73
2023/03/20 03:30:46;;;;;;;4.20;3.30;;;7.30;99.90;;;;;;5052233;28;20025;-73
2023/03/20 03:33:33;;;;;;;8.10;3.30;;;7.30;99.90;;;;;;5051280;28;20021;-73
2023/03/20 03:36:27;;;;;;;3.60;3.17;;;7.30;99.90;;;;;;5049079;28;20517;-73
2023/03/20 03:39:07;;;;;;;4.88;3.30;;;7.30;99.90;;;;;;5047942;28;20493;-73
2023/03/20 03:41:44;;;;;;;4.68;3.72;;;7.30;99.90;;;;;;5045873;28;20067;-73
2023/03/20 03:44:25;;;;;;;6.75;3.17;;;7.30;99.90;;;;;;5044673;28;20097;-73
2023/03/20 03:46:55;;;;;;;;;;;7.30;99.90;;;;;;5031613;28;20424;-73
2023/03/20 03:49:31;;;;;;;5.05;3.33;;;7.30;99.90;;;;;;5044418;28;20424;-73
2023/03/20 03:52:02;;;;;;;3.53;3.10;;;7.30;99.90;;;;;;5046601;28;20081;-73
2023/03/20 03:54:44;;;;;;;5.30;3.05;;;7.30;99.90;;;;;;5052174;28;20024;-73
2023/03/20 03:57:13;;;;;;;4.97;3.10;;;7.30;99.90;;;;;;5053842;28;20056;-73
2023/03/20 03:59:46;;;;;;;6.72;3.17;;;7.30;99.90;;;;;;5056246;28;20378;-73
2023/03/20 04:02:12;;;;;;;4.32;3.92;;;7.30;99.90;;;;;;5055127;28;20091;-73
2023/03/20 04:04:44;;;;;;;7.78;3.97;;;7.40;99.90;;;;;;5054844;28;20013;-73
2023/03/20 04:07:10;;;;;;;5.15;3.25;;;7.40;99.90;;;;;;5054985;28;20385;-73
2023/03/20 04:09:36;;;;;;;6.47;3.22;;;7.40;99.90;;;;;;5053717;28;20028;-73
2023/03/20 04:12:02;;;;;;;8.02;3.28;;;7.30;99.90;;;;;;5053928;28;20040;-73
2023/03/20 04:14:27;;;;;;;5.25;3.13;;;7.30;99.90;;;;;;5053749;28;20021;-73
2023/03/20 04:16:53;;;;;;;10.45;3.67;;;7.30;99.90;;;;;;5054653;28;20029;-73
2023/03/20 04:19:19;;;;;;;3.40;2.88;;;7.20;99.90;;;;;;5053344;28;20773;-73
2023/03/20 04:21:45;;;;;;;6.78;3.20;;;7.10;99.90;;;;;;5054771;28;20024;-72
2023/03/20 04:24:10;;;;;;;6.95;3.92;;;7.00;99.90;;;;;;5042627;28;20093;-73
2023/03/20 04:26:36;;;;;;;8.95;4.00;;;7.00;99.90;;;;;;5054700;28;20044;-72
2023/03/20 04:29:03;;;;;;;5.10;3.63;;;6.90;99.90;;;;;;5053721;28;20484;-73
2023/03/20 04:31:29;;;;;;;4.70;3.47;;;6.90;99.90;;;;;;5052039;28;20044;-73
2023/03/20 04:33:55;;;;;;;4.70;3.28;;;6.90;99.90;;;;;;5053499;28;20059;-73
2023/03/20 04:36:20;;;;;;;5.13;3.95;;;6.90;99.90;;;;;;5053084;28;20049;-73
2023/03/20 04:38:46;;;;;;;9.38;4.38;;;6.90;99.90;;;;;;5052639;28;20120;-73
2023/03/20 04:41:12;;;;;;;5.40;3.30;;;6.90;99.90;;;;;;5053058;28;20028;-73
2023/03/20 04:43:39;;;;;;;8.15;3.85;;;6.90;99.90;;;;;;5053339;28;20440;-73
2023/03/20 04:46:05;;;;;;;6.22;3.50;;;6.90;99.90;;;;;;5040758;28;20021;-73
2023/03/20 04:48:30;;;;;;;7.18;3.45;;;6.90;99.90;;;;;;5052405;28;20025;-73
2023/03/20 04:50:56;;;;;;;5.32;3.25;;;6.90;99.90;;;;;;5051258;28;20032;-73
2023/03/20 04:53:22;;;;;;;6.57;3.30;;;7.00;99.90;;;;;;5052093;28;20497;-73
2023/03/20 04:55:48;;;;;;;8.13;4.68;;;7.10;99.90;;;;;;5052702;28;20025;-73
2023/03/20 04:58:14;;;;;;;8.93;3.47;;;7.10;99.90;;;;;;5052469;28;20047;-73
2023/03/20 05:00:39;;;;;;;10.52;4.20;;;7.10;99.90;;;;;;5053415;28;20020;-73
2023/03/20 05:03:05;;;;;;;5.15;3.53;;;7.20;99.90;;;;;;5053090;28;20092;-73
2023/03/20 05:05:32;;;;;;;8.40;3.80;;;7.20;99.90;;;;;;5052583;28;20489;-73
2023/03/20 05:07:58;;;;;;;4.85;3.70;;;7.30;99.90;;;;;;5051700;28;20060;-73
2023/03/20 05:10:24;;;;;;;3.97;3.58;;;7.30;99.90;;;;;;5053726;28;20032;-73
2023/03/20 05:12:49;;;;;;;5.40;3.75;;;7.30;99.90;;;;;;5053404;28;20039;-73
2023/03/20 05:15:15;;;;;;;4.72;3.95;;;7.30;99.90;;;;;;5054198;28;20052;-73
2023/03/20 05:17:41;;;;;;;5.35;3.22;;;7.40;99.90;;;;;;5052314;28;20025;-73
2023/03/20 05:20:08;;;;;;;6.80;4.20;;;7.40;99.90;;;;;;5054440;28;20033;-73
2023/03/20 05:22:33;;;;;;;8.68;4.03;;;7.40;99.90;;;;;;5053210;28;20378;-73
2023/03/20 05:25:00;;;;;;;11.10;4.65;;;7.50;99.90;;;;;;5054324;28;20029;-73
2023/03/20 05:27:25;;;;;;;12.10;4.35;;;7.50;99.90;;;;;;5053383;28;20104;-74
2023/03/20 05:29:51;;;;;;;14.25;4.32;;;7.50;99.90;;;;;;5056121;28;20049;-73
2023/03/20 05:32:17;;;;;;;6.45;3.67;;;7.40;99.90;;;;;;5056522;28;20025;-73
2023/03/20 05:34:42;;;;;;;5.28;3.20;;;7.40;99.90;;;;;;5053988;28;20028;-73
2023/03/20 05:37:08;;;;;;;4.18;3.83;;;7.40;99.90;;;;;;5053036;28;20040;-73
2023/03/20 05:39:34;;;;;;;7.18;3.80;;;7.40;99.90;;;;;;5045581;28;20888;-74
2023/03/20 05:42:00;;;;;;;5.85;3.97;;;7.40;99.90;;;;;;5054883;28;20032;-73
2023/03/20 05:44:25;;;;;;;6.18;4.47;;;7.40;99.90;;;;;;5051814;28;20481;-73
2023/03/20 05:46:51;;;;;;;8.20;3.60;;;7.50;99.90;;;;;;5047329;28;20081;-73
2023/03/20 05:49:16;;;;;;;5.78;4.20;;;7.50;99.90;;;;;;5053870;28;20029;-73
2023/03/20 05:51:42;;;;;;;5.68;3.70;;;7.50;99.90;;;;;;5051306;28;20165;-73
2023/03/20 05:54:08;;;;;;;3.75;3.08;;;7.50;99.90;;;;;;5047021;28;20478;-73
2023/03/20 05:56:33;;;;;;;9.85;4.32;;;7.60;99.90;;;;;;5051188;28;20407;-73
2023/03/20 05:58:59;;;;;;;8.20;3.75;;;7.60;99.90;;;;;;5046064;28;20029;-73
2023/03/20 06:01:25;;;;;;;7.57;3.58;;;7.60;99.90;;;;;;5051385;28;20025;-73
2023/03/20 06:03:50;;;;;;;6.00;3.60;;;7.60;99.90;;;;;;5044174;28;20029;-72
2023/03/20 06:06:16;;;;;;;5.43;3.30;;;7.70;99.90;;;;;;5049690;28;20029;-72
2023/03/20 06:08:42;;;;;;;5.75;3.60;;;7.70;99.90;;;;;;5059276;28;20052;-73
2023/03/20 06:11:09;;;;;;;5.68;3.42;;;7.70;99.90;;;;;;5057120;28;20033;-73
2023/03/20 06:13:35;;;;;;;7.78;3.53;;;7.80;99.90;;;;;;5058363;28;20032;-72
2023/03/20 06:16:01;;;;;;;8.45;3.97;;;7.80;99.90;;;;;;5055747;28;20025;-72
2023/03/20 06:18:27;;;;;;;4.53;3.20;;;7.80;99.90;;;;;;5058540;28;20028;-73
2023/03/20 06:20:54;;;;;;;4.72;3.88;;;7.90;99.90;;;;;;5056496;28;20021;-72
2023/03/20 06:23:20;;;;;;;8.05;4.00;;;7.90;99.90;;;;;;5056679;28;20047;-73
2023/03/20 06:25:45;;;;;;;6.78;3.25;;;7.90;99.90;;;;;;5037939;28;20033;-72
2023/03/20 06:28:11;;;;;;;6.03;3.85;;;8.00;99.90;;;;;;5033759;28;20057;-73
2023/03/20 06:30:37;;;;;;;6.25;3.70;;;8.00;99.90;;;;;;5040746;28;20088;-73
2023/03/20 06:33:05;;;;;;;5.78;3.63;;;8.00;99.90;;;;;;5040898;28;20052;-73
2023/03/20 06:35:31;;;;;;;6.55;3.97;;;8.10;99.90;;;;;;5039375;28;20483;-73
2023/03/20 06:37:57;;;;;;;9.32;3.92;;;8.10;99.90;;;;;;5035892;28;20022;-73
2023/03/20 06:40:23;;;;;;;6.50;3.58;;;8.20;99.90;;;;;;5040812;28;20032;-73
2023/03/20 06:42:48;;;;;;;9.45;4.00;;;8.20;99.90;;;;;;5033996;28;20017;-73
2023/03/20 06:45:14;;;;;;;4.65;3.50;;;8.30;99.90;;;;;;5043245;28;20478;-72
2023/03/20 06:47:40;;;;;;;4.78;3.58;;;8.30;99.90;;;;;;5045171;28;20010;-73
2023/03/20 06:50:06;;;;;;;6.47;3.92;;;8.40;99.90;;;;;;5043156;28;20029;-73
2023/03/20 06:52:32;;;;;;;8.82;3.72;;;8.50;99.90;;;;;;5039047;28;20044;-73
2023/03/20 06:54:58;;;;;;;5.30;3.67;;;8.60;99.90;;;;;;5043554;28;20075;-73
2023/03/20 06:57:23;;;;;;;9.10;4.72;;;8.60;99.90;;;;;;5051341;28;20025;-72
2023/03/20 06:59:49;;;;;;;3.85;3.42;;;8.70;99.90;;;;;;5054827;28;20059;-70
2023/03/20 07:02:15;;;;;;;7.18;3.67;;;8.80;99.90;;;;;;5054258;28;20021;-71
2023/03/20 07:04:41;;;;;;;6.88;4.25;;;8.90;99.90;;;;;;5056098;28;20021;-71
2023/03/20 07:07:07;;;;;;;7.32;3.42;;;8.90;99.90;;;;;;5051291;28;20378;-70
2023/03/20 07:09:33;;;;;;;4.63;3.40;;;9.10;99.90;;;;;;5050049;28;20020;-71
2023/03/20 07:11:59;;;;;;;9.35;3.40;;;9.10;99.90;;;;;;5055374;28;20039;-71
2023/03/20 07:14:25;;;;;;;4.45;3.47;;;9.20;99.90;;;;;;5054988;28;20025;-71
2023/03/20 07:16:50;;;;;;;3.20;2.90;;;9.30;99.90;;;;;;5055705;28;20029;-71
2023/03/20 07:19:18;;;;;;;6.22;2.95;;;9.30;99.90;;;;;;5051547;28;20498;-70
2023/03/20 07:21:43;;;;;;;5.68;3.28;;;9.40;99.90;;;;;;5038519;28;20022;-70
2023/03/20 07:24:09;;;;;;;9.75;3.25;;;9.40;99.90;;;;;;5032422;28;20041;-70
2023/03/20 07:26:35;;;;;;;4.40;2.95;;;9.50;99.90;;;;;;5054139;28;20098;-70
2023/03/20 07:29:01;;;;;;;4.75;3.22;;;9.50;99.90;;;;;;5054582;28;20033;-70
2023/03/20 07:31:28;;;;;;;4.85;3.55;;;9.60;99.90;;;;;;5053676;28;20029;-70
2023/03/20 07:33:54;;;;;;;6.85;3.10;;;9.60;99.90;;;;;;5054610;28;20500;-70
2023/03/20 07:36:20;;;;;;;5.07;3.45;;;9.70;99.90;;;;;;5048939;28;20021;-70
2023/03/20 07:38:46;;;;;;;5.45;3.25;;;9.70;99.90;;;;;;5055351;28;20025;-70
2023/03/20 07:41:12;;;;;;;8.05;3.20;;;9.70;99.90;;;;;;5050502;28;20024;-70
2023/03/20 07:43:37;;;;;;;6.78;3.00;;;9.70;99.90;;;;;;5045223;28;20482;-70
2023/03/20 07:46:05;;;;;;;5.82;2.85;;;9.80;99.90;;;;;;5042148;28;20058;-71
2023/03/20 07:48:30;;;;;;;7.80;3.53;;;9.80;99.90;;;;;;5044021;28;20021;-70
2023/03/20 07:50:56;;;;;;;4.70;3.33;;;9.90;99.90;;;;;;5037309;28;20504;-72
2023/03/20 07:53:22;;;;;;;8.23;3.30;;;10.00;99.90;;;;;;5037708;28;20802;-70
2023/03/20 07:55:47;;;;;;;7.78;3.28;;;10.00;99.90;;;;;;5038969;28;20036;-70
2023/03/20 07:58:13;;;;;;;4.38;3.15;;;10.00;99.90;;;;;;5039276;28;20076;-70
2023/03/20 08:00:39;;;;;;;5.50;3.20;;;10.10;99.90;;;;;;5041385;28;20031;-70
2023/03/20 08:03:05;;;;;;;6.15;3.33;;;10.20;99.90;;;;;;5042544;28;20056;-71
2023/03/20 08:05:31;;;;;;;7.20;3.47;;;10.20;99.90;;;;;;5043790;28;20087;-70
2023/03/20 08:07:57;;;;;;;9.48;3.30;;;10.30;99.90;;;;;;5049533;28;20021;-70
2023/03/20 08:10:22;;;;;;;6.50;3.30;;;10.30;99.90;;;;;;5045506;28;20026;-70
2023/03/20 08:12:48;;;;;;;3.92;3.10;;;10.40;99.90;;;;;;5045379;28;20513;-70
2023/03/20 08:15:14;;;;;;;9.13;2.85;;;10.30;99.90;;;;;;5030829;28;20452;-71
2023/03/20 08:17:44;;;;;;;5.40;3.20;;;10.40;99.90;;;;;;5042365;28;20468;-70
2023/03/20 08:20:11;;;;;;;7.57;3.42;;;10.40;99.90;;;;;;5040233;28;20537;-70
2023/03/20 08:22:36;;;;;;;6.15;3.20;;;10.40;99.90;;;;;;5038236;28;20021;-70
2023/03/20 08:25:02;;;;;;;6.32;3.10;;;10.40;99.90;;;;;;5055326;28;20029;-70
2023/03/20 08:27:28;;;;;;;5.95;2.70;;;10.50;99.90;;;;;;5052265;28;20212;-70
2023/03/20 08:29:54;;;;;;;10.13;4.35;;;10.30;99.90;;;;;;5055788;28;20096;-70
2023/03/20 08:32:19;;;;;;;6.28;2.63;;;10.40;99.90;;;;;;5041128;28;20029;-70
2023/03/20 08:34:45;;;;;;;3.63;2.85;;;10.50;99.90;;;;;;5036111;28;20404;-70
2023/03/20 08:37:12;;;;;;;5.15;3.45;;;10.50;99.90;;;;;;5053805;28;20025;-70
2023/03/20 08:39:38;;;;;;;3.35;2.40;;;10.50;99.90;;;;;;5027527;28;20109;-70
2023/03/20 08:42:05;;;;;;;2.53;2.30;;;10.70;99.90;;;;;;5030972;28;20013;-70
2023/03/20 08:44:31;;;;;;;2.92;2.22;;;10.80;99.90;;;;;;5027985;28;20021;-70
2023/03/20 08:46:57;;;;;;;5.60;2.30;;;10.80;99.90;;;;;;5043033;28;20025;-70
2023/03/20 08:49:23;;;;;;;2.78;2.50;;;10.70;99.90;;;;;;5035536;28;20449;-70
2023/03/20 08:51:48;;;;;;;3.25;2.13;;;10.60;99.90;;;;;;5043304;28;20044;-70
2023/03/20 08:54:17;;;;;;;2.20;2.00;;;10.60;99.90;;;;;;5033841;28;20032;-70
2023/03/20 08:56:43;;;;;;;2.63;2.42;;;10.60;99.90;;;;;;5044636;28;20402;-72
2023/03/20 08:59:09;;;;;;;5.40;2.90;;;10.80;99.90;;;;;;5053766;28;20033;-70
2023/03/20 09:01:35;;;;;;;2.40;2.10;;;11.10;99.90;;;;;;5050001;28;20421;-70
2023/03/20 09:04:00;;;;;;;2.63;2.25;;;11.40;99.90;;;;;;5038653;28;20037;-70
2023/03/20 09:06:26;;;;;;;2.38;2.15;;;11.60;99.90;;;;;;5040574;28;20018;-70
2023/03/20 09:08:53;;;;;;;2.22;2.00;;;12.00;99.90;;;;;;5039175;28;20437;-71
2023/03/20 09:11:19;;;;;;;3.97;2.20;;;12.20;99.90;;;;;;5041034;28;20104;-70
2023/03/20 09:13:45;;;;;;;3.72;2.22;;;12.40;99.90;;;;;;5048101;28;20057;-70
2023/03/20 09:16:10;;;;;;;3.95;2.10;;;12.30;99.90;;;;;;5039850;28;20472;-70
2023/03/20 09:18:36;;;;;;;4.00;2.30;;;12.10;99.90;;;;;;5051536;28;20029;-70
2023/03/20 09:21:02;;;;;;;2.92;2.10;;;11.80;99.90;;;;;;5048714;28;20021;-70
2023/03/20 09:23:27;;;;;;;3.25;2.47;;;11.50;99.90;;;;;;5037531;28;20025;-70
2023/03/20 09:25:53;;;;;;;5.57;2.45;;;11.40;99.90;;;;;;5032380;28;20087;-70
2023/03/20 09:28:18;;;;;;;4.18;2.42;;;11.40;99.90;;;;;;5034363;28;20033;-71
2023/03/20 09:30:44;;;;;;;4.32;2.45;;;11.50;99.90;;;;;;5039550;28;20025;-71
2023/03/20 09:33:10;;;;;;;4.00;2.30;;;11.70;99.90;;;;;;5052524;28;20504;-71
2023/03/20 09:35:36;;;;;;;3.95;2.03;;;11.70;99.90;;;;;;5050777;28;20048;-70
2023/03/20 09:38:02;;;;;;;2.40;2.17;;;11.60;99.90;;;;;;5027768;28;20029;-71
2023/03/20 09:40:43;;;;;;;8.30;2.90;;;11.70;99.90;;;;;;5033600;28;20022;-71
2023/03/20 09:43:31;;;;;;;3.47;2.10;;;11.70;99.90;;;;;;5036846;28;20033;-70
2023/03/20 09:46:32;;;;;;;2.13;1.98;;;11.60;99.90;;;;;;5039179;28;20021;-70
2023/03/20 09:49:13;;;;;;;2.75;2.20;;;11.60;99.90;;;;;;5029772;28;20022;-70
2023/03/20 09:51:57;;;;;;;5.10;2.25;;;11.70;99.90;;;;;;5043478;28;20060;-70
2023/03/20 09:54:35;;;;;;;3.33;2.10;;;11.80;99.90;;;;;;5041216;28;20394;-69
2023/03/20 09:57:02;;;;;;;8.35;2.90;;;11.80;99.90;;;;;;5041578;28;20028;-70
2023/03/20 09:59:31;;;;;;;3.20;2.28;;;11.90;99.90;;;;;;5041665;28;20036;-71
2023/03/20 10:02:03;;;;;;;6.57;2.42;;;11.90;99.90;;;;;;5040840;28;20079;-70
2023/03/20 10:04:29;;;;;;;3.00;2.22;;;11.90;99.90;;;;;;5043951;28;20028;-70
2023/03/20 10:06:55;;;;;;;4.95;2.22;;;12.00;99.90;;;;;;5040452;28;20022;-70
2023/03/20 10:09:26;;;;;;;3.17;2.17;;;12.00;99.90;;;;;;5045609;28;20496;-70
2023/03/20 10:12:07;;;;;;;2.47;2.20;;;12.10;99.90;;;;;;5041554;28;20171;-70
2023/03/20 10:15:07;;;;;;;3.50;2.28;;;12.10;99.90;;;;;;5034973;28;20490;-70
2023/03/20 10:17:44;;;;;;;3.80;2.42;;;12.10;99.90;;;;;;5046139;28;20060;-70
2023/03/20 10:20:12;;;;;;;3.47;2.13;;;12.20;99.90;;;;;;5047154;28;20025;-70
2023/03/20 10:22:48;;;;;;;3.47;2.10;;;12.20;99.90;;;;;;5049624;28;20079;-70
2023/03/20 10:25:36;;;;;;;3.25;2.42;;;12.20;99.90;;;;;;5049812;28;20538;-70
2023/03/20 10:28:16;;;;;;;3.08;2.22;;;12.20;99.90;;;;;;5042625;28;20018;-70
2023/03/20 10:31:01;;;;;;;3.35;2.58;;;12.00;99.90;;;;;;5044910;28;20025;-70
2023/03/20 10:33:47;;;;;;;2.92;2.22;;;12.10;99.90;;;;;;5040871;28;20021;-70
2023/03/20 10:36:12;;;;;;;2.80;2.40;;;12.20;99.90;;;;;;5041742;28;20465;-70
2023/03/20 10:38:52;;;;;;;4.40;2.75;;;12.30;99.90;;;;;;5041871;28;20449;-70
2023/03/20 10:41:30;;;;;;;5.00;2.80;;;12.30;99.90;;;;;;5040977;28;20045;-70
2023/03/20 10:43:58;;;;;;;2.67;1.83;;;12.40;99.90;;;;;;5041923;28;20485;-70
2023/03/20 10:46:29;;;;;;;3.10;2.40;;;12.40;99.90;;;;;;5042040;28;20100;-70
2023/03/20 10:49:13;;;;;;;6.15;2.20;;;12.50;99.90;;;;;;5051286;28;20509;-71
2023/03/20 10:51:54;;;;;;;5.05;2.45;;;12.50;99.90;;;;;;5053221;28;20061;-70
2023/03/20 10:54:33;;;;;;;3.28;2.30;;;12.50;99.90;;;;;;5051495;28;20024;-70
2023/03/20 10:57:01;;;;;;;5.03;2.00;;;12.50;99.90;;;;;;5035548;28;20420;-70
2023/03/20 10:59:41;;;;;;;2.13;1.92;;;12.60;99.90;;;;;;5044455;28;20470;-71
2023/03/20 11:02:11;;;;;;;5.03;2.40;;;12.70;99.90;;;;;;5033938;28;20028;-70
2023/03/20 11:04:38;;;;;;;3.63;2.20;;;12.70;99.90;;;;;;5044683;28;20074;-70
2023/03/20 11:07:18;;;;;;;3.25;1.98;;;12.70;99.90;;;;;;5042187;28;20017;-70
2023/03/20 11:09:44;;;;;;;3.92;2.40;;;12.80;99.90;;;;;;5038321;28;20450;-70
2023/03/20 11:12:18;;;;;;;3.58;2.10;;;12.90;99.90;;;;;;5053399;28;20086;-70
2023/03/20 11:14:44;;;;;;;3.28;2.20;;;12.90;99.90;;;;;;5051564;28;20021;-70
2023/03/20 11:17:11;;;;;;;2.17;1.98;;;13.00;99.90;;;;;;5054388;28;20345;-70
2023/03/20 11:19:38;;;;;;;7.75;2.80;;;13.10;99.90;;;;;;5028610;28;20018;-70
2023/03/20 11:22:22;;;;;;;4.25;2.10;;;13.00;99.90;;;;;;5039803;28;20028;-70
2023/03/20 11:24:53;;;;;;;2.97;2.28;;;12.80;99.90;;;;;;5026629;28;20121;-70
2023/03/20 11:27:25;;;;;;;3.35;2.53;;;12.90;99.90;;;;;;5039909;28;20029;-70
2023/03/20 11:29:52;;;;;;;2.75;2.30;;;13.00;99.90;;;;;;5040332;28;20025;-70
2023/03/20 11:32:30;;;;;;;3.83;2.60;;;13.20;99.90;;;;;;5039871;28;20044;-70
2023/03/20 11:35:07;;;;;;;4.63;2.25;;;13.30;99.90;;;;;;5038446;28;20057;-70
2023/03/20 11:37:35;;;;;;;4.22;2.35;;;13.40;99.90;;;;;;5039778;28;20029;-70
2023/03/20 11:40:16;;;;;;;2.65;2.00;;;13.40;99.90;;;;;;5038132;28;20551;-70
2023/03/20 11:42:52;;;;;;;4.68;2.25;;;13.50;99.90;;;;;;5028691;28;20057;-70
2023/03/20 11:45:18;;;;;;;4.40;2.38;;;13.50;99.90;;;;;;5039008;28;20017;-70
2023/03/20 11:47:52;;;;;;;5.68;1.80;;;13.60;99.90;;;;;;5038668;28;20025;-70
2023/03/20 11:50:41;;;;;;;5.20;2.38;;;13.70;99.90;;;;;;5041456;28;20028;-71
2023/03/20 11:53:33;;;;;;;3.80;2.17;;;13.60;99.90;;;;;;5040677;28;20042;-70
2023/03/20 11:56:05;;;;;;;4.95;2.42;;;13.70;99.90;;;;;;5031876;28;20033;-70
2023/03/20 11:58:31;;;;;;;3.60;2.10;;;13.80;99.90;;;;;;5053231;28;20026;-70
2023/03/20 12:00:58;;;;;;;3.63;2.03;;;13.80;99.90;;;;;;5056207;28;20025;-70
2023/03/20 12:04:07;;;;;;;5.63;2.53;;;13.90;99.90;;;;;;5053333;28;20026;-70
2023/03/20 12:07:01;;;;;;;3.78;2.00;;;14.00;99.90;;;;;;5049388;28;20037;-70
2023/03/20 12:09:34;;;;;;;3.78;1.67;;;13.90;99.90;;;;;;5021692;28;20029;-70
2023/03/20 12:12:09;;;;;;;3.70;2.10;;;14.00;99.90;;;;;;5030227;28;20057;-70
2023/03/20 12:14:44;;;;;;;4.72;2.20;;;14.10;99.90;;;;;;5038690;28;20032;-70
2023/03/20 12:17:30;;;;;;;3.28;2.13;;;14.00;99.90;;;;;;5034776;28;20029;-70
2023/03/20 12:20:03;;;;;;;5.65;2.25;;;14.20;99.90;;;;;;5035445;28;20171;-70
2023/03/20 12:22:49;;;;;;;2.63;1.70;;;14.40;99.90;;;;;;5037952;28;20097;-70
2023/03/20 12:25:28;;;;;;;3.45;2.13;;;14.50;99.90;;;;;;5038326;28;20021;-70
2023/03/20 12:28:02;;;;;;;2.38;1.90;;;14.40;99.90;;;;;;5034751;28;20533;-70
2023/03/20 12:30:50;;;;;;;4.65;2.50;;;14.40;99.90;;;;;;5039122;28;20033;-70
2023/03/20 12:33:30;;;;;;;7.18;2.03;;;14.40;99.90;;;;;;5035646;28;20438;-70
2023/03/20 12:35:57;;;;;;;4.20;2.70;;;14.50;99.90;;;;;;5039147;28;20079;-70
2023/03/20 12:38:32;;;;;;;2.53;1.90;;;14.60;99.90;;;;;;5035705;28;20033;-70
2023/03/20 12:41:03;;;;;;;4.65;2.17;;;14.70;99.90;;;;;;5037516;28;20115;-70
2023/03/20 12:43:52;;;;;;;2.28;1.88;;;14.60;99.90;;;;;;5038045;28;20076;-70
2023/03/20 12:46:31;;;;;;;2.75;1.85;;;14.60;99.90;;;;;;5039576;28;20040;-70
2023/03/20 12:49:21;;;;;;;2.53;2.22;;;14.50;99.90;;;;;;5038412;28;20106;-72
2023/03/20 12:52:02;;;;;;;4.30;2.20;;;14.60;99.90;;;;;;5031438;28;20049;-69
2023/03/20 12:55:04;;;;;;;2.72;1.90;;;14.70;99.90;;;;;;5036482;28;20049;-69
2023/03/20 12:57:54;;;;;;;2.13;1.80;;;14.70;99.90;;;;;;5037721;28;20024;-72
2023/03/20 13:00:33;;;;;;;3.90;1.98;;;14.80;99.90;;;;;;5033310;28;20087;-69
2023/03/20 13:03:09;;;;;;;3.20;2.20;;;14.90;99.90;;;;;;5037410;28;20034;-70
2023/03/20 13:05:45;;;;;;;5.75;2.17;;;15.00;99.90;;;;;;5039222;28;20434;-69
2023/03/20 13:08:36;;;;;;;3.67;2.22;;;15.20;99.90;;;;;;5034450;28;20393;-70
2023/03/20 13:11:15;;;;;;;2.97;1.98;;;15.30;99.90;;;;;;5035111;28;20831;-69
2023/03/20 13:13:59;;;;;;;4.30;2.10;;;15.10;99.90;;;;;;5035531;28;20060;-69